Crestwood, Missouri
Current Conditions -  °F | °C
As of 9:53 AM on Thursday 23 Oct 2014 (Local Time) from KCPS Reporting Station
Clear Clear  
Wind Chill: 55°   Ceiling: Unl
Heat Index: 55°   Visibility: 10mi
Dew Point: 45°   Wind: 9mph
Humidity: 69%   Direction: 150°SSE
Pressure: 30.22"   Gusts: NA
Location:  38.5502°N, 90.379°W
Report Text: KCPS 231453Z 15008KT 10SM CLR 13/07 A3022 RMK AO2 SLP234 T01280072 50002
Loading
Personal Weather Stations






























Interactive Weather Map
Tropical Storm Tracking
New forecast layout! Learn more

10-Day Weather Forecast

Advertisements
Track Severe Weather on mobile